KSPG/SPG METAR and TAF weather

Enter ICAO airport designator
Station Type Date Time Source
KSPG METAR 2023/02/04 02:53 UTC NOAA

KSPG 040253Z AUTO 03017G23KT 10SM CLR 15/11 A3027 RMK AO2 PK WND 02027/0203 SLP248 T01500106 51027


Station Type Date Time Source
KSPG Decoded METAR 2023/02/04 02:53 UTC NOAA

ST PETERSBURG WHITTED AIRPORT , FL, United States (KSPG) 27-46N 082-38W 2M
Feb 03, 2023 - 09:53 PM EST / 2023.02.04 0253 UTC
Wind: from the NNE (030 degrees) at 20 MPH (17 KT) gusting to 26 MPH (23 KT):0
Visibility: 10 mile(s):0
Sky conditions: clear
Temperature: 59.0 F (15.0 C)
Dew Point: 51.1 F (10.6 C)
Relative Humidity: 74%
Pressure (altimeter): 30.27 in. Hg (1025 hPa)
Pressure tendency: 0.08 inches (2.7 hPa) higher than three hours ago
ob: KSPG 040253Z AUTO 03017G23KT 10SM CLR 15/11 A3027 RMK AO2 PK WND 02027/0203 SLP248 T01500106 51027
cycle: 3

Station Type Date Time Source
KSPG TAF UTC NOAA

Error!

Example: see airport list